Time;durP1;ratioP1;P1;durP2;ratioP2;P2;SDS_P1;SDS_P2;PMS_P1;PMS_P2;Temp;Humidity;BMP_temperature;BMP_pressure;BME280_temperature;BME280_humidity;BME280_pressure;Samples;Min_cycle;Max_cycle;Signal;HPM_P1;HPM_P2
2024/01/25 00:01:47;;;;;;;5.70;1.30;;;8.70;99.90;;;;;;5076322;28;20456;-82
2024/01/25 00:04:14;;;;;;;9.67;1.77;;;8.80;99.90;;;;;;5076548;28;20945;-82
2024/01/25 00:06:42;;;;;;;1.17;0.67;;;8.70;99.90;;;;;;5077570;28;20453;-82
2024/01/25 00:09:09;;;;;;;1.53;0.97;;;8.70;99.90;;;;;;5076250;28;20485;-82
2024/01/25 00:11:35;;;;;;;7.47;0.80;;;8.70;99.90;;;;;;5075254;28;20460;-82
2024/01/25 00:14:02;;;;;;;6.80;0.73;;;8.80;99.90;;;;;;5075231;28;20483;-81
2024/01/25 00:16:29;;;;;;;0.77;0.57;;;8.80;99.90;;;;;;5075426;28;20448;-82
2024/01/25 00:18:56;;;;;;;2.20;0.70;;;8.80;99.90;;;;;;5075132;28;20469;-81
2024/01/25 00:21:23;;;;;;;0.83;0.83;;;8.80;99.90;;;;;;5075042;28;20436;-82
2024/01/25 00:23:51;;;;;;;0.60;0.40;;;8.80;99.90;;;;;;5075279;28;20788;-81
2024/01/25 00:26:17;;;;;;;1.13;0.40;;;8.80;99.90;;;;;;5075872;28;20814;-82
2024/01/25 00:28:44;;;;;;;6.33;0.70;;;8.80;99.90;;;;;;5075994;28;20465;-82
2024/01/25 00:31:11;;;;;;;0.40;0.40;;;8.80;99.90;;;;;;5076037;28;20452;-82
2024/01/25 00:33:38;;;;;;;2.33;0.70;;;8.80;99.90;;;;;;5076023;28;20488;-82
2024/01/25 00:36:06;;;;;;;2.00;0.60;;;8.80;99.90;;;;;;5076331;28;20445;-82
2024/01/25 00:38:33;;;;;;;2.33;1.03;;;8.80;99.90;;;;;;5075834;28;20444;-82
2024/01/25 00:41:02;;;;;;;0.80;0.60;;;8.80;99.90;;;;;;5075673;28;20973;-82
2024/01/25 00:43:29;;;;;;;3.37;0.70;;;8.80;99.90;;;;;;5075692;28;20433;-81
2024/01/25 00:45:56;;;;;;;0.97;0.40;;;8.80;99.90;;;;;;5076094;28;20445;-82
2024/01/25 00:48:23;;;;;;;8.93;0.77;;;8.80;99.90;;;;;;5079004;28;20444;-82
2024/01/25 00:50:51;;;;;;;2.87;0.40;;;8.80;99.90;;;;;;5082174;28;20441;-82
2024/01/25 00:53:18;;;;;;;0.60;0.50;;;8.80;99.90;;;;;;5076637;28;20476;-82
2024/01/25 00:55:45;;;;;;;2.20;0.30;;;8.80;99.90;;;;;;5077598;28;20432;-82
2024/01/25 00:58:14;;;;;;;1.63;0.77;;;8.80;99.90;;;;;;5078005;28;20456;-82
2024/01/25 01:00:41;;;;;;;1.33;0.50;;;8.80;99.90;;;;;;5077701;28;20453;-82
2024/01/25 01:03:09;;;;;;;6.33;0.50;;;8.80;99.90;;;;;;5077832;28;20960;-82
2024/01/25 01:05:37;;;;;;;4.60;0.77;;;8.90;99.90;;;;;;5077927;28;20445;-82
2024/01/25 01:08:04;;;;;;;1.70;0.70;;;8.90;99.90;;;;;;5077421;28;20483;-82
2024/01/25 01:10:31;;;;;;;0.40;0.40;;;8.90;99.90;;;;;;5077475;28;20473;-82
2024/01/25 01:12:57;;;;;;;4.60;0.90;;;8.80;99.90;;;;;;5081449;28;20448;-82
2024/01/25 01:15:26;;;;;;;6.30;1.03;;;8.70;99.90;;;;;;5082716;28;20480;-81
2024/01/25 01:17:52;;;;;;;1.17;0.60;;;8.70;99.90;;;;;;5081190;28;20455;-82
2024/01/25 01:20:19;;;;;;;2.93;0.40;;;8.60;99.90;;;;;;5080962;28;20453;-82
2024/01/25 01:22:46;;;;;;;1.27;0.40;;;8.60;99.90;;;;;;5080684;28;20475;-82
2024/01/25 01:25:13;;;;;;;2.40;0.57;;;8.70;99.90;;;;;;5084342;28;20440;-82
2024/01/25 01:27:39;;;;;;;1.90;0.40;;;8.70;99.90;;;;;;5094636;28;20934;-82
2024/01/25 01:30:08;;;;;;;3.40;0.50;;;8.70;99.90;;;;;;5081106;28;20471;-81
2024/01/25 01:32:36;;;;;;;2.70;0.97;;;8.70;99.90;;;;;;5081418;28;20451;-81
2024/01/25 01:35:03;;;;;;;3.23;0.50;;;8.60;99.90;;;;;;5085056;28;20468;-82
2024/01/25 01:37:30;;;;;;;1.07;0.53;;;8.60;99.90;;;;;;5079981;28;20539;-81
2024/01/25 01:39:58;;;;;;;0.60;0.40;;;8.60;99.90;;;;;;5079250;28;20494;-82
2024/01/25 01:42:25;;;;;;;0.40;0.33;;;8.60;99.90;;;;;;5077513;28;20965;-81
2024/01/25 01:44:53;;;;;;;0.63;0.50;;;8.60;99.90;;;;;;5077604;28;20444;-81
2024/01/25 01:47:20;;;;;;;20.17;0.70;;;8.60;99.90;;;;;;5077886;28;20444;-81
2024/01/25 01:49:49;;;;;;;0.30;0.30;;;8.60;99.90;;;;;;5077676;28;20464;-81
2024/01/25 01:52:16;;;;;;;1.57;1.03;;;8.60;99.90;;;;;;5077760;28;20449;-82
2024/01/25 01:54:42;;;;;;;2.00;0.70;;;8.60;99.90;;;;;;5077862;28;20484;-81
2024/01/25 01:57:09;;;;;;;0.70;0.30;;;8.60;99.90;;;;;;5078297;28;20449;-82
2024/01/25 01:59:36;;;;;;;0.30;0.30;;;8.70;99.90;;;;;;5078319;28;20453;-81
2024/01/25 02:02:03;;;;;;;5.70;1.10;;;8.60;99.90;;;;;;5077977;28;20450;-82
2024/01/25 02:04:29;;;;;;;7.37;0.80;;;8.70;99.90;;;;;;5078087;28;20490;-81
2024/01/25 02:06:57;;;;;;;2.97;0.50;;;8.70;99.90;;;;;;5077688;28;20456;-82
2024/01/25 02:09:24;;;;;;;0.50;0.50;;;8.70;99.90;;;;;;5077962;28;20486;-81
2024/01/25 02:12:00;;;;;;;0.97;0.67;;;8.70;99.90;;;;;;5077787;28;20448;-81
2024/01/25 02:14:27;;;;;;;1.90;0.93;;;8.70;99.90;;;;;;5077985;28;20476;-82
2024/01/25 02:16:54;;;;;;;1.00;0.50;;;8.70;99.90;;;;;;5077955;28;20445;-82
2024/01/25 02:19:21;;;;;;;1.03;0.40;;;8.60;99.90;;;;;;5077628;28;20969;-81
2024/01/25 02:21:48;;;;;;;1.40;0.30;;;8.60;99.90;;;;;;5077290;28;20441;-81
2024/01/25 02:24:17;;;;;;;0.70;0.60;;;8.70;99.90;;;;;;5077035;28;20918;-82
2024/01/25 02:26:43;;;;;;;2.60;0.50;;;8.70;99.90;;;;;;5077507;28;20441;-82
2024/01/25 02:29:10;;;;;;;0.50;0.40;;;8.70;99.90;;;;;;5077044;28;20448;-81
2024/01/25 02:31:37;;;;;;;0.40;0.30;;;8.70;99.90;;;;;;5077832;28;20812;-82
2024/01/25 02:34:03;;;;;;;2.87;0.53;;;8.60;99.90;;;;;;5077610;28;20485;-82
2024/01/25 02:36:30;;;;;;;0.60;0.60;;;8.70;99.90;;;;;;5077466;28;20793;-81
2024/01/25 02:38:57;;;;;;;1.90;0.67;;;8.70;99.90;;;;;;5078177;28;20468;-82
2024/01/25 02:41:25;;;;;;;3.00;0.90;;;8.70;99.90;;;;;;5077681;28;20440;-82
2024/01/25 02:43:51;;;;;;;5.20;0.60;;;8.70;99.90;;;;;;5077154;28;20449;-82
2024/01/25 02:46:18;;;;;;;4.37;0.70;;;8.70;99.90;;;;;;5076935;28;20456;-82
2024/01/25 02:48:45;;;;;;;7.00;0.70;;;8.70;99.90;;;;;;5081042;28;20970;-82
2024/01/25 02:51:12;;;;;;;2.00;0.60;;;8.60;99.90;;;;;;5081060;28;20440;-82
2024/01/25 02:53:39;;;;;;;2.97;0.70;;;8.60;99.90;;;;;;5079429;28;20964;-82
2024/01/25 02:56:07;;;;;;;5.23;0.70;;;8.60;99.90;;;;;;5079449;28;20460;-82
2024/01/25 02:58:35;;;;;;;0.43;0.43;;;8.60;99.90;;;;;;5079738;28;20445;-82
2024/01/25 03:01:02;;;;;;;2.30;0.50;;;8.60;99.90;;;;;;5080241;28;20476;-82
2024/01/25 03:03:28;;;;;;;3.77;0.63;;;8.50;99.90;;;;;;5079489;28;20441;-82
2024/01/25 03:05:55;;;;;;;4.10;0.80;;;8.60;99.90;;;;;;5079160;28;20945;-82
2024/01/25 03:08:22;;;;;;;3.80;1.50;;;8.60;99.90;;;;;;5079057;28;20476;-81
2024/01/25 03:10:50;;;;;;;4.17;0.60;;;8.60;99.90;;;;;;5079260;28;20445;-82
2024/01/25 03:13:17;;;;;;;1.07;0.60;;;8.60;99.90;;;;;;5079084;28;20437;-82
2024/01/25 03:15:45;;;;;;;2.60;0.50;;;8.60;99.90;;;;;;5079307;28;20472;-82
2024/01/25 03:18:12;;;;;;;2.20;0.53;;;8.50;99.90;;;;;;5079339;28;20440;-82
2024/01/25 03:20:38;;;;;;;0.60;0.40;;;8.50;99.90;;;;;;5078725;28;20465;-82
2024/01/25 03:23:05;;;;;;;0.40;0.40;;;8.50;99.90;;;;;;5078419;28;20445;-82
2024/01/25 03:25:32;;;;;;;0.30;0.30;;;8.50;99.90;;;;;;5078805;28;20448;-82
2024/01/25 03:27:59;;;;;;;0.50;0.50;;;8.50;99.90;;;;;;5078062;28;20445;-82
2024/01/25 03:30:25;;;;;;;8.27;0.80;;;8.50;99.90;;;;;;5078396;28;20465;-82
2024/01/25 03:32:53;;;;;;;0.67;0.37;;;8.50;99.90;;;;;;5078060;28;20440;-82
2024/01/25 03:35:20;;;;;;;4.93;0.93;;;8.50;99.90;;;;;;5076892;28;20476;-82
2024/01/25 03:37:47;;;;;;;1.00;0.50;;;8.50;99.90;;;;;;5095393;28;20417;-81
2024/01/25 03:40:14;;;;;;;1.57;0.87;;;8.50;99.90;;;;;;5077261;28;20514;-81
2024/01/25 03:42:41;;;;;;;1.80;0.50;;;8.50;99.90;;;;;;5075815;28;20456;-82
2024/01/25 03:45:08;;;;;;;0.80;0.63;;;8.50;99.90;;;;;;5075349;28;20448;-82
2024/01/25 03:47:35;;;;;;;2.20;0.60;;;8.40;99.90;;;;;;5075051;28;20945;-81
2024/01/25 03:50:03;;;;;;;1.60;0.97;;;8.40;99.90;;;;;;5075285;28;20966;-82
2024/01/25 03:52:30;;;;;;;1.07;0.63;;;8.40;99.90;;;;;;5075424;28;20433;-81
2024/01/25 03:54:57;;;;;;;3.27;0.80;;;8.40;99.90;;;;;;5076138;28;20488;-81
2024/01/25 03:57:24;;;;;;;0.30;0.30;;;8.40;99.90;;;;;;5077148;28;20429;-82
2024/01/25 03:59:50;;;;;;;0.60;0.43;;;8.40;99.90;;;;;;5077029;28;20460;-82
2024/01/25 04:02:18;;;;;;;7.93;2.00;;;8.40;99.90;;;;;;5076387;28;20801;-82
2024/01/25 04:04:45;;;;;;;6.17;0.83;;;8.40;99.90;;;;;;5077013;28;20444;-82
2024/01/25 04:07:13;;;;;;;0.63;0.40;;;8.40;99.90;;;;;;5078620;28;20456;-82
2024/01/25 04:09:40;;;;;;;1.97;0.67;;;8.40;99.90;;;;;;5078195;28;20476;-82
2024/01/25 04:12:07;;;;;;;0.63;0.60;;;8.40;99.90;;;;;;5078465;28;20490;-82
2024/01/25 04:14:34;;;;;;;3.30;0.60;;;8.40;99.90;;;;;;5078402;28;20839;-82
2024/01/25 04:17:01;;;;;;;1.63;0.70;;;8.40;99.90;;;;;;5078600;28;20435;-82
2024/01/25 04:19:28;;;;;;;3.17;0.60;;;8.30;99.90;;;;;;5077430;28;20551;-82
2024/01/25 04:21:54;;;;;;;1.80;0.77;;;8.20;99.90;;;;;;5078513;28;20447;-82
2024/01/25 04:24:22;;;;;;;2.03;0.57;;;8.20;99.90;;;;;;5078680;28;20434;-82
2024/01/25 04:26:49;;;;;;;3.30;0.40;;;8.10;99.90;;;;;;5077761;28;20441;-82
2024/01/25 04:29:16;;;;;;;0.63;0.50;;;8.20;99.90;;;;;;5076443;28;20467;-82
2024/01/25 04:31:48;;;;;;;6.83;0.70;;;8.20;99.90;;;;;;5076843;28;20456;-82
2024/01/25 04:34:16;;;;;;;1.33;0.50;;;8.20;99.90;;;;;;5077107;28;20437;-82
2024/01/25 04:36:43;;;;;;;0.30;0.30;;;8.20;99.90;;;;;;5076196;28;20445;-82
2024/01/25 04:39:10;;;;;;;0.90;0.40;;;8.20;99.90;;;;;;5076052;28;20834;-82
2024/01/25 04:41:41;;;;;;;1.67;0.40;;;8.20;99.90;;;;;;5076435;28;20863;-82
2024/01/25 04:44:08;;;;;;;0.73;0.73;;;8.20;99.90;;;;;;5076614;28;20444;-82
2024/01/25 04:46:37;;;;;;;1.53;0.53;;;8.20;99.90;;;;;;5078480;28;20444;-82
2024/01/25 04:49:04;;;;;;;0.53;0.50;;;8.20;99.90;;;;;;5078850;28;20515;-82
2024/01/25 04:51:30;;;;;;;3.90;0.70;;;8.10;99.90;;;;;;5078829;28;20432;-82
2024/01/25 04:53:57;;;;;;;0.60;0.40;;;8.10;99.90;;;;;;5079087;28;20445;-82
2024/01/25 04:56:24;;;;;;;0.93;0.37;;;8.20;99.90;;;;;;5078857;28;20489;-82
2024/01/25 04:58:52;;;;;;;2.70;0.43;;;8.10;99.90;;;;;;5078363;28;20469;-82
2024/01/25 05:01:18;;;;;;;6.17;0.67;;;8.10;99.90;;;;;;5077526;28;20444;-82
2024/01/25 05:03:45;;;;;;;0.30;0.30;;;8.10;99.90;;;;;;5077837;28;20518;-82
2024/01/25 05:06:12;;;;;;;0.37;0.30;;;8.20;99.90;;;;;;5077664;28;20448;-82
2024/01/25 05:08:39;;;;;;;0.50;0.50;;;8.20;99.90;;;;;;5077568;28;20464;-82
2024/01/25 05:11:08;;;;;;;0.67;0.40;;;8.20;99.90;;;;;;5077461;28;20519;-82
2024/01/25 05:13:35;;;;;;;0.50;0.43;;;8.20;99.90;;;;;;5077115;28;20946;-82
2024/01/25 05:16:04;;;;;;;1.10;0.90;;;8.10;99.90;;;;;;5077144;28;20484;-82
2024/01/25 05:18:30;;;;;;;5.30;0.50;;;8.10;99.90;;;;;;5076897;28;20439;-82
2024/01/25 05:20:57;;;;;;;2.27;0.60;;;8.10;99.90;;;;;;5076866;28;20816;-82
2024/01/25 05:23:24;;;;;;;1.07;0.40;;;8.00;99.90;;;;;;5077106;28;20518;-82
2024/01/25 05:25:51;;;;;;;2.70;0.70;;;8.00;99.90;;;;;;5077208;28;20439;-83
2024/01/25 05:28:18;;;;;;;0.80;0.80;;;8.00;99.90;;;;;;5076931;28;20449;-82
2024/01/25 05:30:44;;;;;;;3.60;0.70;;;8.00;99.90;;;;;;5076587;28;20475;-83
2024/01/25 05:33:12;;;;;;;0.70;0.40;;;8.00;99.90;;;;;;5076547;28;20460;-82
2024/01/25 05:35:39;;;;;;;2.63;0.70;;;7.90;99.90;;;;;;5075968;28;20476;-82
2024/01/25 05:38:06;;;;;;;2.87;0.83;;;7.80;99.90;;;;;;5076323;28;20448;-82
2024/01/25 05:40:33;;;;;;;0.60;0.60;;;7.80;99.90;;;;;;5076134;28;20476;-83
2024/01/25 05:43:00;;;;;;;0.87;0.40;;;7.60;99.90;;;;;;5076514;28;20540;-82
2024/01/25 05:45:27;;;;;;;1.43;0.73;;;7.60;99.90;;;;;;5076009;28;20437;-82
2024/01/25 05:47:53;;;;;;;3.30;0.90;;;7.50;99.90;;;;;;5075634;28;20443;-82
2024/01/25 05:50:21;;;;;;;3.33;1.00;;;7.50;99.90;;;;;;5075549;28;20461;-82
2024/01/25 05:52:48;;;;;;;1.53;0.70;;;7.40;99.90;;;;;;5085686;28;20444;-82
2024/01/25 05:55:15;;;;;;;1.37;0.40;;;7.40;99.90;;;;;;5080111;28;20480;-82
2024/01/25 05:57:44;;;;;;;1.33;0.50;;;7.30;99.90;;;;;;5075488;28;20805;-82
2024/01/25 06:00:14;;;;;;;2.47;0.93;;;7.30;99.90;;;;;;5078287;28;20841;-82
2024/01/25 06:02:41;;;;;;;0.70;0.70;;;7.30;99.90;;;;;;5078670;28;20545;-82
2024/01/25 06:05:08;;;;;;;1.70;0.90;;;7.20;99.90;;;;;;5082461;28;20449;-82
2024/01/25 06:07:36;;;;;;;0.83;0.50;;;7.20;99.90;;;;;;5081402;28;20441;-82
2024/01/25 06:10:03;;;;;;;3.37;0.90;;;7.20;99.90;;;;;;5081713;28;20468;-83
2024/01/25 06:12:30;;;;;;;0.40;0.30;;;7.10;99.90;;;;;;5080411;28;20472;-82
2024/01/25 06:14:57;;;;;;;1.33;0.47;;;7.20;99.90;;;;;;5080138;28;20451;-82
2024/01/25 06:17:23;;;;;;;4.30;0.50;;;7.20;99.90;;;;;;5079297;28;20455;-82
2024/01/25 06:19:50;;;;;;;0.50;0.50;;;7.20;99.90;;;;;;5078089;28;20464;-82
2024/01/25 06:22:17;;;;;;;6.63;0.63;;;7.30;99.90;;;;;;5077413;28;20816;-82
2024/01/25 06:24:45;;;;;;;1.43;0.33;;;7.30;99.90;;;;;;5077051;28;20494;-82
2024/01/25 06:27:12;;;;;;;7.33;0.90;;;7.30;99.90;;;;;;5077190;28;20448;-82
2024/01/25 06:29:39;;;;;;;1.23;0.50;;;7.30;99.90;;;;;;5076886;28;20469;-82
2024/01/25 06:32:07;;;;;;;1.00;0.60;;;7.20;99.90;;;;;;5077127;28;20823;-82
2024/01/25 06:34:33;;;;;;;2.23;0.50;;;7.20;99.90;;;;;;5076460;28;20448;-82
2024/01/25 06:37:00;;;;;;;0.33;0.30;;;7.10;99.90;;;;;;5076933;28;20484;-82
2024/01/25 06:39:27;;;;;;;3.53;0.43;;;6.90;99.90;;;;;;5077536;28;20475;-82
2024/01/25 06:41:55;;;;;;;4.33;0.53;;;6.80;99.90;;;;;;5076735;28;20433;-82
2024/01/25 06:44:22;;;;;;;1.47;0.60;;;6.80;99.90;;;;;;5076616;28;20456;-82
2024/01/25 06:46:48;;;;;;;0.40;0.40;;;6.70;99.90;;;;;;5076949;28;20444;-82
2024/01/25 06:49:15;;;;;;;0.40;0.40;;;6.70;99.90;;;;;;5079244;28;20468;-82
2024/01/25 06:51:42;;;;;;;0.77;0.67;;;6.60;99.90;;;;;;5079990;28;20523;-83
2024/01/25 06:54:09;;;;;;;8.40;1.10;;;6.60;99.90;;;;;;5080408;28;20950;-83
2024/01/25 06:56:36;;;;;;;2.23;0.40;;;6.50;99.90;;;;;;5080638;28;20545;-83
2024/01/25 06:59:04;;;;;;;4.67;0.90;;;6.50;99.90;;;;;;5080248;28;20465;-82
2024/01/25 07:01:32;;;;;;;0.80;0.47;;;6.40;99.90;;;;;;5080223;28;20441;-83
2024/01/25 07:03:59;;;;;;;0.57;0.57;;;6.40;99.90;;;;;;5079274;28;20528;-82
2024/01/25 07:06:26;;;;;;;4.93;0.40;;;6.40;99.90;;;;;;5079654;28;20444;-82
2024/01/25 07:08:54;;;;;;;0.50;0.50;;;6.40;99.90;;;;;;5078957;28;20469;-82
2024/01/25 07:11:21;;;;;;;1.47;0.47;;;6.40;99.90;;;;;;5079754;28;20452;-83
2024/01/25 07:13:47;;;;;;;1.33;0.40;;;6.40;99.90;;;;;;5080280;28;20808;-82
2024/01/25 07:16:15;;;;;;;0.40;0.40;;;6.40;99.90;;;;;;5078766;28;20484;-82
2024/01/25 07:18:42;;;;;;;1.60;0.70;;;6.40;99.90;;;;;;5078951;28;20465;-82
2024/01/25 07:21:09;;;;;;;2.40;0.77;;;6.30;99.90;;;;;;5079170;28;20957;-82
2024/01/25 07:23:36;;;;;;;1.10;0.50;;;6.40;99.90;;;;;;5079087;28;20433;-82
2024/01/25 07:26:02;;;;;;;0.60;0.40;;;6.30;99.90;;;;;;5079341;28;20437;-83
2024/01/25 07:28:29;;;;;;;0.40;0.33;;;6.30;99.90;;;;;;5078892;28;20437;-82
2024/01/25 07:30:56;;;;;;;0.40;0.40;;;6.30;99.90;;;;;;5078837;28;20433;-82
2024/01/25 07:33:24;;;;;;;3.03;0.93;;;6.30;99.90;;;;;;5078659;28;20816;-83
2024/01/25 07:35:51;;;;;;;0.40;0.37;;;6.30;99.90;;;;;;5078645;28;20499;-82
2024/01/25 07:38:18;;;;;;;3.37;0.60;;;6.40;99.90;;;;;;5078360;28;20445;-82
2024/01/25 07:40:45;;;;;;;0.50;0.50;;;6.30;99.90;;;;;;5077914;28;21000;-82
2024/01/25 07:43:11;;;;;;;2.87;0.60;;;6.40;99.90;;;;;;5078075;28;20445;-82
2024/01/25 07:45:40;;;;;;;1.13;0.80;;;6.40;99.90;;;;;;5077852;28;20437;-82
2024/01/25 07:48:07;;;;;;;0.43;0.43;;;6.40;99.90;;;;;;5077959;28;20491;-82
2024/01/25 07:50:35;;;;;;;0.50;0.50;;;6.50;99.90;;;;;;5077647;28;20457;-82
2024/01/25 07:53:02;;;;;;;0.50;0.47;;;6.50;99.90;;;;;;5077756;28;20441;-82
2024/01/25 07:55:29;;;;;;;2.97;0.70;;;6.40;99.90;;;;;;5077130;28;20441;-82
2024/01/25 07:57:56;;;;;;;0.83;0.50;;;6.50;99.90;;;;;;5082532;28;20437;-82
2024/01/25 08:00:23;;;;;;;0.90;0.50;;;6.50;99.90;;;;;;5083996;28;20461;-82
2024/01/25 08:02:49;;;;;;;0.53;0.53;;;6.60;99.90;;;;;;5084788;28;20421;-82
2024/01/25 08:05:16;;;;;;;1.27;0.30;;;6.60;99.90;;;;;;5089913;28;20425;-81
2024/01/25 08:07:46;;;;;;;1.50;0.47;;;6.70;99.90;;;;;;5076931;28;20460;-81
2024/01/25 08:10:12;;;;;;;5.40;0.70;;;6.70;99.90;;;;;;5074610;28;20467;-82
2024/01/25 08:12:39;;;;;;;4.50;0.60;;;6.70;99.90;;;;;;5074456;28;20449;-82
2024/01/25 08:15:07;;;;;;;0.50;0.40;;;6.70;99.90;;;;;;5074252;28;20502;-82
2024/01/25 08:17:36;;;;;;;0.80;0.40;;;6.70;99.90;;;;;;5074226;28;20485;-82
2024/01/25 08:20:04;;;;;;;0.50;0.37;;;6.80;99.90;;;;;;5074546;28;20831;-82
2024/01/25 08:22:30;;;;;;;1.47;0.90;;;6.80;99.90;;;;;;5073624;28;20961;-82
2024/01/25 08:24:59;;;;;;;4.93;0.77;;;6.90;99.90;;;;;;5076331;28;20938;-81
2024/01/25 08:27:26;;;;;;;1.40;0.60;;;6.90;99.90;;;;;;5081437;28;20934;-81
2024/01/25 08:29:52;;;;;;;1.10;0.53;;;7.00;99.90;;;;;;5075851;28;20469;-81
2024/01/25 08:32:19;;;;;;;0.50;0.50;;;7.00;99.90;;;;;;5074695;28;20808;-81
2024/01/25 08:34:46;;;;;;;5.27;1.60;;;7.10;99.90;;;;;;5075451;28;20441;-81
2024/01/25 08:37:12;;;;;;;1.57;0.80;;;7.10;99.90;;;;;;5075075;28;20499;-81
2024/01/25 08:39:39;;;;;;;0.90;0.40;;;7.10;99.90;;;;;;5075378;28;20460;-82
2024/01/25 08:42:07;;;;;;;2.87;0.77;;;7.10;99.90;;;;;;5075730;28;20449;-81
2024/01/25 08:44:34;;;;;;;1.23;0.80;;;7.20;99.90;;;;;;5074576;28;20456;-81
2024/01/25 08:47:00;;;;;;;0.50;0.37;;;7.20;99.90;;;;;;5074787;28;20445;-81
2024/01/25 08:49:27;;;;;;;5.10;0.77;;;7.30;99.90;;;;;;5074687;28;20464;-81
2024/01/25 08:51:55;;;;;;;1.30;0.70;;;7.40;99.90;;;;;;5075006;28;20445;-82
2024/01/25 08:54:21;;;;;;;3.33;0.97;;;7.50;99.90;;;;;;5078950;28;20488;-82
2024/01/25 08:56:48;;;;;;;1.73;0.70;;;7.60;99.90;;;;;;5077911;28;20491;-82
2024/01/25 08:59:16;;;;;;;0.50;0.40;;;7.90;99.90;;;;;;5078445;28;20982;-82
2024/01/25 09:01:43;;;;;;;1.77;0.57;;;8.40;99.90;;;;;;5078788;28;20448;-82
2024/01/25 09:04:09;;;;;;;8.23;0.70;;;9.20;99.90;;;;;;5077883;28;20456;-82
2024/01/25 09:06:36;;;;;;;1.00;0.60;;;10.10;99.90;;;;;;5078195;28;20452;-82
2024/01/25 09:09:03;;;;;;;2.20;0.70;;;11.00;99.90;;;;;;5077550;28;20504;-82
2024/01/25 09:11:30;;;;;;;0.40;0.30;;;12.10;99.90;;;;;;5077401;28;20938;-82
2024/01/25 09:13:57;;;;;;;8.60;1.00;;;13.10;99.90;;;;;;5077659;28;20470;-82
2024/01/25 09:16:25;;;;;;;5.40;0.60;;;13.90;99.90;;;;;;5077377;28;20933;-82
2024/01/25 09:18:52;;;;;;;2.00;1.03;;;14.80;99.90;;;;;;5077330;28;20468;-82
2024/01/25 09:21:18;;;;;;;0.57;0.50;;;15.70;99.90;;;;;;5076391;28;20429;-81
2024/01/25 09:23:45;;;;;;;5.10;0.83;;;16.10;99.90;;;;;;5076664;28;20456;-82
2024/01/25 09:26:12;;;;;;;4.00;0.50;;;17.20;99.90;;;;;;5076593;28;20432;-81
2024/01/25 09:28:39;;;;;;;0.90;0.60;;;18.00;99.90;;;;;;5076672;28;20438;-81
2024/01/25 09:31:06;;;;;;;0.60;0.60;;;18.70;99.90;;;;;;5076678;28;20445;-82
2024/01/25 09:33:34;;;;;;;4.07;1.30;;;19.10;99.90;;;;;;5077738;28;20449;-81
2024/01/25 09:36:01;;;;;;;6.73;0.80;;;18.40;99.90;;;;;;5079738;28;20441;-81
2024/01/25 09:38:28;;;;;;;1.60;1.00;;;17.40;99.90;;;;;;5078757;28;20441;-81
2024/01/25 09:40:55;;;;;;;6.43;0.80;;;16.30;99.90;;;;;;5077893;28;20453;-81
2024/01/25 09:43:22;;;;;;;3.40;0.70;;;15.30;99.90;;;;;;5079936;28;20447;-81
2024/01/25 09:45:53;;;;;;;3.23;0.80;;;14.50;99.90;;;;;;5080512;28;20480;-81
2024/01/25 09:48:20;;;;;;;1.80;0.50;;;13.80;99.90;;;;;;5081652;28;20425;-82
2024/01/25 09:50:49;;;;;;;1.53;0.60;;;13.30;99.90;;;;;;5080457;28;20527;-82
2024/01/25 09:53:22;;;;;;;9.87;0.80;;;13.00;99.90;;;;;;5079900;28;20465;-82
2024/01/25 09:55:58;;;;;;;3.50;0.90;;;12.80;99.90;;;;;;5080303;28;20436;-82
2024/01/25 09:58:30;;;;;;;1.43;0.80;;;12.50;99.90;;;;;;5079766;28;20432;-82
2024/01/25 10:00:57;;;;;;;2.40;0.67;;;12.30;99.90;;;;;;5079937;28;20883;-82
2024/01/25 10:03:24;;;;;;;4.23;1.40;;;12.30;99.90;;;;;;5080149;28;20452;-82
2024/01/25 10:05:52;;;;;;;1.17;0.50;;;12.00;99.90;;;;;;5079965;28;20836;-82
2024/01/25 10:08:23;;;;;;;3.23;0.47;;;11.90;99.90;;;;;;5080375;28;20571;-81
2024/01/25 10:10:50;;;;;;;1.77;0.90;;;12.30;99.90;;;;;;5080114;28;20440;-82
2024/01/25 10:13:16;;;;;;;1.17;0.60;;;12.70;99.90;;;;;;5080451;28;20448;-81
2024/01/25 10:15:45;;;;;;;0.70;0.30;;;13.20;99.90;;;;;;5080615;28;20449;-82
2024/01/25 10:18:13;;;;;;;2.47;0.80;;;13.10;99.90;;;;;;5092031;28;20470;-81
2024/01/25 10:20:40;;;;;;;0.90;0.53;;;13.00;99.90;;;;;;5087191;28;20472;-81
2024/01/25 10:23:08;;;;;;;6.60;1.00;;;12.70;99.90;;;;;;5077588;28;20433;-85
2024/01/25 10:25:36;;;;;;;3.93;0.50;;;12.70;99.90;;;;;;5078365;28;20957;-84
2024/01/25 10:28:03;;;;;;;2.90;0.60;;;12.70;99.90;;;;;;5079384;28;20441;-82
2024/01/25 10:30:33;;;;;;;4.23;0.57;;;12.60;99.90;;;;;;5077719;28;21031;-82
2024/01/25 10:33:00;;;;;;;0.50;0.40;;;12.60;99.90;;;;;;5077347;28;20544;-83
2024/01/25 10:35:27;;;;;;;2.60;0.97;;;12.50;99.90;;;;;;5077767;28;20441;-82
2024/01/25 10:37:55;;;;;;;2.20;0.50;;;12.50;99.90;;;;;;5077682;28;20487;-82
2024/01/25 10:40:23;;;;;;;11.50;0.93;;;12.40;99.90;;;;;;5077594;28;20666;-82
2024/01/25 10:42:50;;;;;;;2.93;0.50;;;12.60;99.90;;;;;;5077527;28;20444;-82
2024/01/25 10:45:17;;;;;;;0.40;0.37;;;12.50;99.90;;;;;;5076770;28;20436;-82
2024/01/25 10:47:45;;;;;;;0.40;0.40;;;12.60;99.90;;;;;;5077731;28;20809;-82
2024/01/25 10:50:13;;;;;;;1.57;0.60;;;12.30;99.90;;;;;;5080506;28;20467;-83
2024/01/25 10:52:42;;;;;;;1.70;0.63;;;12.30;99.90;;;;;;5081106;28;20452;-82
2024/01/25 10:55:09;;;;;;;12.43;1.40;;;12.10;99.90;;;;;;5081802;28;20452;-83
2024/01/25 10:57:43;;;;;;;1.67;0.73;;;12.00;99.90;;;;;;5081330;28;20534;-83
2024/01/25 11:00:11;;;;;;;1.40;0.40;;;11.90;99.90;;;;;;5079852;28;20471;-83
2024/01/25 11:02:39;;;;;;;2.00;0.70;;;11.80;99.90;;;;;;5080378;28;20502;-83
2024/01/25 11:05:09;;;;;;;2.90;0.60;;;11.60;99.90;;;;;;5080312;28;20456;-83
2024/01/25 11:07:43;;;;;;;1.57;0.40;;;11.50;99.90;;;;;;5079781;28;20444;-82
2024/01/25 11:10:17;;;;;;;6.00;0.80;;;11.40;99.90;;;;;;5079871;28;20477;-83
2024/01/25 11:12:52;;;;;;;5.30;1.00;;;11.30;99.90;;;;;;5079548;28;20504;-82
2024/01/25 11:15:22;;;;;;;3.27;0.40;;;11.20;99.90;;;;;;5079084;28;20957;-82
2024/01/25 11:17:54;;;;;;;6.10;0.67;;;11.10;99.90;;;;;;5078664;28;20481;-82
2024/01/25 11:20:24;;;;;;;1.00;0.60;;;11.00;99.90;;;;;;5079579;28;20472;-82
2024/01/25 11:22:57;;;;;;;0.73;0.40;;;10.90;99.90;;;;;;5079079;28;20437;-82
2024/01/25 11:25:25;;;;;;;2.53;0.50;;;10.90;99.90;;;;;;5079232;28;20438;-82
2024/01/25 11:27:54;;;;;;;0.53;0.50;;;10.90;99.90;;;;;;5078095;28;20433;-82
2024/01/25 11:30:21;;;;;;;0.60;0.50;;;10.80;99.90;;;;;;5078329;28;20528;-83
2024/01/25 11:32:48;;;;;;;0.90;0.50;;;10.80;99.90;;;;;;5077984;28;20452;-82
2024/01/25 11:35:17;;;;;;;1.53;0.50;;;10.70;99.90;;;;;;5078169;28;20546;-82
2024/01/25 11:37:45;;;;;;;1.03;0.60;;;10.60;99.90;;;;;;5077690;28;20585;-82
2024/01/25 11:40:12;;;;;;;3.67;0.80;;;10.50;99.90;;;;;;5077661;28;20469;-82
2024/01/25 11:42:39;;;;;;;10.33;0.80;;;10.60;99.90;;;;;;5076532;28;20457;-82
2024/01/25 11:45:10;;;;;;;0.80;0.40;;;10.70;99.90;;;;;;5077562;28;20976;-83
2024/01/25 11:47:38;;;;;;;1.73;0.73;;;10.80;99.90;;;;;;5077392;28;20421;-80
2024/01/25 11:50:06;;;;;;;0.53;0.50;;;10.80;99.90;;;;;;5077362;28;20471;-80
2024/01/25 11:52:33;;;;;;;0.60;0.50;;;10.80;99.90;;;;;;5077097;28;20444;-81
2024/01/25 11:55:00;;;;;;;13.97;1.80;;;10.70;99.90;;;;;;5077464;28;20441;-81
2024/01/25 11:57:27;;;;;;;1.03;0.50;;;10.70;99.90;;;;;;5076306;28;20492;-80
2024/01/25 11:59:56;;;;;;;5.07;0.63;;;10.70;99.90;;;;;;5076951;28;20839;-80
2024/01/25 12:02:25;;;;;;;0.50;0.40;;;10.80;99.90;;;;;;5076820;28;20444;-80
2024/01/25 12:04:53;;;;;;;2.13;0.60;;;10.90;99.90;;;;;;5076374;28;20440;-80
2024/01/25 12:07:20;;;;;;;0.40;0.40;;;11.10;99.90;;;;;;5076374;28;20478;-80
2024/01/25 12:09:58;;;;;;;1.20;0.50;;;11.20;99.90;;;;;;5075907;28;20834;-80
2024/01/25 12:12:25;;;;;;;2.57;0.60;;;11.30;99.90;;;;;;5076229;28;20429;-80
2024/01/25 12:14:52;;;;;;;1.80;0.70;;;11.30;99.90;;;;;;5076583;28;20452;-80
2024/01/25 12:17:19;;;;;;;2.90;0.57;;;11.30;99.90;;;;;;5079320;28;20477;-80
2024/01/25 12:19:47;;;;;;;1.23;0.40;;;11.20;99.90;;;;;;5079735;28;20464;-80
2024/01/25 12:22:21;;;;;;;1.03;0.53;;;11.20;99.90;;;;;;5078839;28;20437;-80
2024/01/25 12:24:48;;;;;;;3.90;0.57;;;11.10;99.90;;;;;;5077987;28;20432;-80
2024/01/25 12:27:16;;;;;;;1.20;0.47;;;11.10;99.90;;;;;;5077275;28;20471;-80
2024/01/25 12:29:43;;;;;;;0.50;0.50;;;11.20;99.90;;;;;;5077165;28;20468;-80
2024/01/25 12:32:10;;;;;;;3.90;0.70;;;11.20;99.90;;;;;;5092145;28;20443;-79
2024/01/25 12:34:39;;;;;;;8.40;0.90;;;11.20;99.90;;;;;;5076125;28;20413;-80
2024/01/25 12:37:07;;;;;;;1.27;0.40;;;11.10;99.90;;;;;;5074089;28;20981;-80
2024/01/25 12:39:34;;;;;;;1.33;0.50;;;11.10;99.90;;;;;;5074153;28;20457;-79
2024/01/25 12:42:00;;;;;;;5.63;0.50;;;11.10;99.90;;;;;;5074853;28;20863;-79
2024/01/25 12:44:27;;;;;;;1.63;0.43;;;11.00;99.90;;;;;;5074554;28;20451;-81
2024/01/25 12:46:54;;;;;;;5.93;0.50;;;10.90;99.90;;;;;;5078634;28;20480;-81
2024/01/25 12:49:23;;;;;;;4.93;0.50;;;10.80;99.90;;;;;;5078480;28;20471;-81
2024/01/25 12:51:49;;;;;;;1.23;0.70;;;10.70;99.90;;;;;;5077964;28;20467;-80
2024/01/25 12:54:17;;;;;;;5.50;0.80;;;10.60;99.90;;;;;;5078024;28;20459;-80